Time;durP1;ratioP1;P1;durP2;ratioP2;P2;SDS_P1;SDS_P2;PMS_P1;PMS_P2;Temp;Humidity;BMP_temperature;BMP_pressure;BME280_temperature;BME280_humidity;BME280_pressure;Samples;Min_cycle;Max_cycle;Signal;HPM_P1;HPM_P2
2022/08/15 00:02:18;;;;;;;10.52;3.38;;;;;;;24.66;67.46;99287.59;10168669;29;20052;-82
2022/08/15 00:07:19;;;;;;;8.75;3.70;;;;;;;24.55;67.92;99288.81;10168275;29;20126;-80
2022/08/15 00:12:22;;;;;;;7.72;3.17;;;;;;;24.32;68.07;99265.88;10168438;29;20135;-80
2022/08/15 00:17:23;;;;;;;7.80;3.45;;;;;;;23.74;67.92;99177.13;10167152;29;20099;-82
2022/08/15 00:22:24;;;;;;;10.15;3.33;;;;;;;24.66;67.90;99328.34;10167001;28;20048;-81
2022/08/15 00:27:25;;;;;;;11.50;3.22;;;;;;;24.75;67.89;99342.91;10160504;29;20033;-81
2022/08/15 00:32:25;;;;;;;6.65;3.30;;;;;;;23.97;67.64;99197.28;10155421;29;20131;-81
2022/08/15 00:37:27;;;;;;;7.25;3.25;;;;;;;24.58;67.74;99310.75;10166132;29;20127;-81
2022/08/15 00:42:28;;;;;;;11.52;3.42;;;;;;;24.30;68.46;99285.19;10167108;29;20051;-81
2022/08/15 00:47:29;;;;;;;9.15;3.28;;;;;;;24.30;68.78;99311.53;10166949;29;20067;-81
2022/08/15 00:52:32;;;;;;;36.35;4.68;;;;;;;24.44;69.91;99344.28;10166740;29;20052;-81
2022/08/15 00:57:36;;;;;;;17.13;4.10;;;;;;;24.27;70.28;99331.91;10165874;28;20459;-80
2022/08/15 01:02:38;;;;;;;50.00;6.10;;;;;;;24.27;70.14;99358.22;10166435;29;20519;-80
2022/08/15 01:07:42;;;;;;;7.88;3.47;;;;;;;24.21;70.20;99353.94;10166596;29;20203;-81
2022/08/15 01:12:43;;;;;;;12.10;3.33;;;;;;;23.44;70.59;99254.81;10166904;28;20546;-81
2022/08/15 01:17:44;;;;;;;15.70;3.95;;;;;;;24.12;70.49;99354.53;10166108;29;20048;-80
2022/08/15 01:23:09;;;;;;;11.25;3.25;;;;;;;24.22;72.30;99356.34;10166615;29;20052;-81
2022/08/15 01:28:16;;;;;;;11.38;3.78;;;;;;;24.08;72.41;99361.63;10129567;29;20060;-80
2022/08/15 01:33:17;;;;;;;7.28;3.58;;;;;;;23.88;71.48;99318.34;10127579;29;20060;-78
2022/08/15 01:38:21;;;;;;;14.07;3.55;;;;;;;23.20;72.96;99227.56;10126189;29;20084;-81
2022/08/15 01:43:27;;;;;;;14.40;4.05;;;;;;;23.91;72.76;99345.69;10126259;29;20087;-84
2022/08/15 01:48:37;;;;;;;14.38;4.03;;;;;;;23.89;72.82;99344.34;10126117;29;20131;-83
2022/08/15 01:53:47;;;;;;;23.42;4.15;;;;;;;23.87;73.57;99338.38;10132128;29;20050;-81
2022/08/15 01:58:48;;;;;;;12.73;3.95;;;;;;;23.69;71.98;99321.69;10133398;29;20048;-84
2022/08/15 02:03:49;;;;;;;30.52;4.40;;;;;;;23.81;71.84;99353.06;10132874;29;20087;-81
2022/08/15 02:08:52;;;;;;;9.13;3.53;;;;;;;23.15;71.80;99251.16;10132770;29;20512;-80
2022/08/15 02:13:56;;;;;;;20.75;3.78;;;;;;;23.69;71.90;99329.84;10132076;29;20127;-80
2022/08/15 02:18:59;;;;;;;11.93;3.65;;;;;;;23.41;71.11;99277.06;10132396;29;20045;-81
2022/08/15 02:24:00;;;;;;;13.93;3.75;;;;;;;24.16;70.58;99384.59;10131993;29;20072;-80
2022/08/15 02:29:03;;;;;;;18.85;4.15;;;;;;;24.31;70.50;99389.13;10132479;29;20052;-81
2022/08/15 02:34:05;;;;;;;11.60;3.83;;;;;;;24.30;70.56;99373.94;10131415;29;20076;-84
2022/08/15 02:39:08;;;;;;;17.73;3.75;;;;;;;24.43;70.37;99388.81;10131143;29;20068;-81
2022/08/15 02:44:11;;;;;;;15.13;3.70;;;;;;;24.54;69.89;99401.22;10132060;29;20041;-80
2022/08/15 02:49:12;;;;;;;31.05;5.03;;;;;;;24.68;69.29;99401.38;10131380;29;20052;-80
2022/08/15 02:54:15;;;;;;;10.95;3.60;;;;;;;24.55;68.49;99343.91;10130787;29;20040;-82
2022/08/15 02:59:16;;;;;;;38.38;5.18;;;;;;;24.57;68.25;99292.03;10131093;29;20049;-80
2022/08/15 03:04:22;;;;;;;22.67;4.18;;;;;;;25.09;67.93;99349.38;10131005;29;20042;-84
2022/08/15 03:09:23;;;;;;;16.77;6.60;;;;;;;25.59;66.01;99382.56;10131200;29;20056;-79
2022/08/15 03:14:24;;;;;;;21.48;4.30;;;;;;;25.96;66.13;99409.84;10130149;29;20048;-81
2022/08/15 03:19:25;;;;;;;22.00;4.25;;;;;;;26.24;65.73;99417.38;10129920;29;20176;-81
2022/08/15 03:24:26;;;;;;;11.02;4.57;;;;;;;26.39;64.58;99414.44;10130323;29;20631;-80
2022/08/15 03:29:27;;;;;;;21.27;4.13;;;;;;;25.64;64.78;99293.56;10130687;28;20516;-82
2022/08/15 03:34:28;;;;;;;12.15;3.33;;;;;;;26.00;64.77;99382.06;10129821;28;20051;-81
2022/08/15 03:39:29;;;;;;;11.55;3.80;;;;;;;25.95;64.33;99391.09;10159214;28;20056;-82
2022/08/15 03:44:30;;;;;;;10.27;3.97;;;;;;;25.51;64.60;99327.69;10138058;29;20040;-82
2022/08/15 03:49:30;;;;;;;9.15;3.28;;;;;;;25.11;64.47;99276.53;10144151;28;20398;-77
2022/08/15 03:54:31;;;;;;;7.50;3.58;;;;;;;25.23;64.22;99315.00;10160705;29;20051;-80
2022/08/15 03:59:33;;;;;;;12.35;3.40;;;;;;;25.64;64.36;99386.03;10151062;29;20084;-83
2022/08/15 04:04:34;;;;;;;8.20;3.30;;;;;;;25.20;64.52;99312.88;10153653;29;20098;-82
2022/08/15 04:09:35;;;;;;;10.05;3.58;;;;;;;25.68;64.33;99380.81;10160974;29;20496;-82
2022/08/15 04:14:35;;;;;;;14.45;3.75;;;;;;;25.48;63.50;99325.56;10167626;29;20048;-81
2022/08/15 04:19:36;;;;;;;8.05;3.10;;;;;;;27.31;60.04;99421.91;10136564;29;20143;-84
2022/08/15 04:24:37;;;;;;;14.60;3.63;;;;;;;28.07;58.78;99440.63;10133824;29;20044;-83
2022/08/15 04:29:38;;;;;;;9.43;3.55;;;;;;;27.99;56.74;99310.28;10129440;29;20056;-84
2022/08/15 04:34:41;;;;;;;14.32;3.20;;;;;;;29.62;54.48;99422.09;10125161;28;20052;-83
2022/08/15 04:39:42;;;;;;;;;;;;;;;29.95;54.51;99439.72;10122879;29;20072;-80
2022/08/15 04:44:43;;;;;;;14.18;3.55;;;;;;;28.97;54.12;99387.97;10124567;29;19923;-71
2022/08/15 04:49:46;;;;;;;31.30;5.40;;;;;;;28.64;54.72;99416.38;10128142;29;20041;-79
2022/08/15 04:54:47;;;;;;;14.40;3.17;;;;;;;27.92;54.54;99376.22;10127703;29;20041;-79
2022/08/15 04:59:51;;;;;;;17.20;3.67;;;;;;;27.76;54.97;99403.03;10127516;29;20048;-80
2022/08/15 05:04:52;;;;;;;14.38;4.28;;;;;;;27.53;54.72;99374.84;10127684;29;20128;-80
2022/08/15 05:09:53;;;;;;;11.38;3.13;;;;;;;27.67;54.89;99413.03;10128279;29;20445;-80
2022/08/15 05:14:56;;;;;;;11.90;3.47;;;;;;;27.79;54.56;99437.13;10127544;29;20390;-82
2022/08/15 05:19:56;;;;;;;17.85;4.20;;;;;;;26.83;54.82;99282.41;10127485;29;20496;-80
2022/08/15 05:24:57;;;;;;;9.48;3.58;;;;;;;27.26;53.60;99344.84;10142554;29;20056;-81
2022/08/15 05:29:58;;;;;;;7.25;3.42;;;;;;;27.70;53.29;99417.88;10133150;29;20045;-83
2022/08/15 05:34:59;;;;;;;10.60;3.65;;;;;;;26.97;53.22;99296.84;10134259;28;20064;-79
2022/08/15 05:40:00;;;;;;;14.30;3.85;;;;;;;27.85;53.03;99430.44;10133901;29;20513;-79
2022/08/15 05:45:32;;;;;;;25.70;4.00;;;;;;;28.03;51.43;99425.13;10133906;28;20049;-79
2022/08/15 05:50:43;;;;;;;17.80;3.63;;;;;;;27.99;49.73;99422.22;10133479;29;20128;-78
2022/08/15 05:55:52;;;;;;;19.23;4.28;;;;;;;28.17;49.34;99420.47;10132395;29;20048;-80
2022/08/15 06:01:20;;;;;;;9.35;3.53;;;;;;;28.27;48.92;99420.25;10133270;29;20404;-80
2022/08/15 06:06:26;;;;;;;27.27;4.93;;;;;;;28.51;46.01;99419.16;10132333;29;20143;-74
2022/08/15 06:11:46;;;;;;;7.80;3.33;;;;;;;29.33;43.71;99423.41;10133048;29;20040;-78
2022/08/15 06:16:54;;;;;;;8.90;3.42;;;;;;;29.01;42.44;99329.59;10132520;29;20052;-79
2022/08/15 06:22:24;;;;;;;26.15;4.70;;;;;;;29.83;42.94;99405.91;10132698;29;20040;-78
2022/08/15 06:27:39;;;;;;;23.40;3.95;;;;;;;30.10;40.90;99421.25;10137821;29;20053;-77
2022/08/15 06:32:58;;;;;;;14.38;3.65;;;;;;;30.20;39.25;99412.69;10131486;29;20131;-74
2022/08/15 06:38:20;;;;;;;13.18;3.25;;;;;;;30.30;39.24;99409.66;10130799;29;20064;-78
2022/08/15 06:43:21;;;;;;;13.85;3.42;;;;;;;30.78;38.88;99359.31;10131111;29;20052;-80
2022/08/15 06:48:29;;;;;;;19.48;3.40;;;;;;;31.89;35.85;99401.47;10131891;28;20049;-79
2022/08/15 06:53:50;;;;;;;17.02;3.38;;;;;;;32.03;34.06;99303.97;10130978;29;20076;-79
2022/08/15 06:59:06;;;;;;;10.55;3.83;;;;;;;32.95;34.36;99381.84;10130854;29;20102;-78
2022/08/15 07:04:19;;;;;;;11.75;3.20;;;;;;;33.25;31.54;99387.19;10130754;29;20052;-73
2022/08/15 07:09:29;;;;;;;11.07;3.80;;;;;;;33.52;31.55;99385.72;10130603;29;20060;-80
2022/08/15 07:14:58;;;;;;;9.45;3.00;;;;;;;33.77;30.34;99369.97;10131121;28;20182;-73
2022/08/15 07:19:59;;;;;;;13.60;3.17;;;;;;;33.66;30.87;99341.31;10130627;29;20049;-76
2022/08/15 07:25:01;;;;;;;12.43;3.25;;;;;;;33.09;29.72;99220.00;10130736;29;20147;-85
2022/08/15 07:30:26;;;;;;;8.93;2.95;;;;;;;34.40;29.35;99352.91;10128549;29;20048;-82
2022/08/15 07:35:34;;;;;;;15.55;3.45;;;;;;;34.54;28.54;99375.41;10130246;29;20036;-77
2022/08/15 07:40:38;;;;;;;18.48;4.38;;;;;;;34.67;27.89;99384.41;10129234;29;20064;-78
2022/08/15 07:45:41;;;;;;;13.52;3.58;;;;;;;34.54;27.62;99361.63;10129847;29;20048;-79
2022/08/15 07:50:44;;;;;;;22.65;3.28;;;;;;;34.83;28.22;99363.19;10128987;29;20131;-81
2022/08/15 07:56:14;;;;;;;10.32;3.58;;;;;;;35.03;27.12;99355.00;10130151;29;20044;-79
2022/08/15 08:01:29;;;;;;;27.90;3.72;;;;;;;35.17;28.06;99347.09;10128991;29;20103;-75
2022/08/15 08:06:42;;;;;;;10.27;3.30;;;;;;;35.26;27.34;99333.91;10128637;29;20071;-76
2022/08/15 08:11:44;;;;;;;13.43;4.13;;;;;;;35.53;27.97;99326.63;10128540;29;20040;-82
2022/08/15 08:17:06;;;;;;;13.35;3.42;;;;;;;35.76;27.33;99273.50;10128950;29;20055;-84
2022/08/15 08:22:20;;;;;;;15.75;3.67;;;;;;;36.20;24.59;99285.06;10128288;29;20053;-74
2022/08/15 08:27:35;;;;;;;12.13;4.40;;;;;;;36.46;23.92;99300.16;10128647;29;20055;-79
2022/08/15 08:32:49;;;;;;;20.80;4.22;;;;;;;36.58;24.17;99280.63;10128022;29;20072;-79
2022/08/15 08:38:40;;;;;;;20.38;5.10;;;;;;;36.86;23.40;99296.16;10128487;29;20106;-81
2022/08/15 08:43:50;;;;;;;35.75;5.15;;;;;;;36.67;21.89;99264.59;10136728;29;20052;-82
2022/08/15 08:49:11;;;;;;;17.20;4.80;;;;;;;37.03;21.52;99256.88;10128179;29;20048;-77
2022/08/15 08:54:27;;;;;;;32.10;6.03;;;;;;;36.88;21.33;99233.69;10127458;29;20512;-81
2022/08/15 08:59:47;;;;;;;37.60;6.57;;;;;;;37.11;20.86;99253.06;10129612;29;20040;-74
2022/08/15 09:04:54;;;;;;;27.50;5.97;;;;;;;36.62;20.82;99170.03;10134088;29;20044;-76
2022/08/15 09:10:00;;;;;;;27.65;5.80;;;;;;;37.15;21.30;99223.44;10134939;29;20400;-84
2022/08/15 09:15:13;;;;;;;54.92;7.13;;;;;;;37.51;21.36;99229.50;10134464;29;20083;-78
2022/08/15 09:20:19;;;;;;;36.97;6.53;;;;;;;37.31;20.38;99164.34;10134227;29;20056;-78
2022/08/15 09:25:23;;;;;;;22.48;6.82;;;;;;;37.99;20.71;99249.09;10133468;29;20483;-76
2022/08/15 09:30:27;;;;;;;82.80;9.38;;;;;;;37.95;20.05;99239.94;10134194;29;20037;-77
2022/08/15 09:36:15;;;;;;;25.85;7.13;;;;;;;38.14;19.95;99238.94;10134151;29;20093;-77
2022/08/15 09:41:33;;;;;;;28.35;5.95;;;;;;;38.05;20.29;99221.81;10133556;29;20088;-77
2022/08/15 09:46:40;;;;;;;26.80;6.60;;;;;;;38.10;21.05;99229.81;10131815;29;20041;-79
2022/08/15 09:51:57;;;;;;;22.55;6.43;;;;;;;38.18;19.95;99209.31;10139238;29;20263;-74
2022/08/15 09:57:23;;;;;;;30.50;6.55;;;;;;;38.44;20.05;99208.34;10133036;29;20044;-80
2022/08/15 10:02:27;;;;;;;30.52;6.85;;;;;;;38.41;19.57;99216.66;10130076;29;20079;-74
2022/08/15 10:07:46;;;;;;;34.72;7.28;;;;;;;38.58;19.77;99214.03;10127828;29;20032;-78
2022/08/15 10:13:05;;;;;;;31.48;6.07;;;;;;;38.75;19.45;99198.69;10126087;29;20043;-82
2022/08/15 10:18:08;;;;;;;25.25;6.18;;;;;;;38.59;20.09;99170.41;10125846;29;20048;-78
2022/08/15 10:23:16;;;;;;;26.35;6.00;;;;;;;38.56;19.79;99182.28;10128097;28;20554;-85
2022/08/15 10:28:23;;;;;;;28.75;5.55;;;;;;;38.57;20.21;99173.59;10130809;28;20546;-78
2022/08/15 10:33:30;;;;;;;20.98;5.38;;;;;;;38.68;20.62;99183.97;10142182;29;20037;-86
2022/08/15 10:38:32;;;;;;;23.08;5.78;;;;;;;38.66;20.69;99178.81;10127368;29;20064;-83
2022/08/15 10:43:39;;;;;;;19.08;5.13;;;;;;;38.77;20.06;99192.75;10126494;29;20045;-77
2022/08/15 10:49:03;;;;;;;20.30;5.18;;;;;;;38.49;19.79;99112.88;10124373;29;20044;-79
2022/08/15 10:54:06;;;;;;;19.73;5.10;;;;;;;37.97;20.42;99039.97;10125157;29;20041;-75
2022/08/15 10:59:15;;;;;;;18.73;4.22;;;;;;;38.00;18.76;99064.97;10140964;29;20051;-76
2022/08/15 11:04:26;;;;;;;18.10;5.03;;;;;;;38.69;19.14;99155.84;10127281;29;20036;-75
2022/08/15 11:09:27;;;;;;;24.95;5.43;;;;;;;38.69;20.16;99166.16;10126084;28;20473;-78
2022/08/15 11:14:34;;;;;;;15.73;4.60;;;;;;;38.71;19.85;99150.72;10127515;29;20040;-77
2022/08/15 11:19:38;;;;;;;15.52;4.60;;;;;;;38.54;19.92;99132.75;10123769;29;20043;-77
2022/08/15 11:24:40;;;;;;;18.88;4.63;;;;;;;38.16;20.01;99050.00;10125890;29;20446;-82
2022/08/15 11:29:43;;;;;;;22.60;4.55;;;;;;;38.88;19.65;99131.78;10140027;29;20527;-89
2022/08/15 11:34:46;;;;;;;22.65;4.05;;;;;;;39.06;19.75;99131.88;10125685;29;20496;-80
2022/08/15 11:39:59;;;;;;;22.40;4.60;;;;;;;38.93;19.36;99110.00;10125139;29;20424;-81
2022/08/15 11:45:05;;;;;;;12.05;3.67;;;;;;;38.56;18.80;99069.34;10124038;29;20036;-78
2022/08/15 11:50:42;;;;;;;14.85;4.00;;;;;;;38.25;19.59;99019.97;10125795;28;20492;-80
2022/08/15 11:55:46;;;;;;;18.63;4.50;;;;;;;38.72;20.07;99110.66;10126189;28;20072;-76
2022/08/15 12:00:57;;;;;;;17.65;3.90;;;;;;;38.92;20.01;99138.16;10124917;29;20493;-76
2022/08/15 12:06:00;;;;;;;9.05;3.83;;;;;;;38.35;19.76;99069.16;10129070;28;20086;-83
2022/08/15 12:11:13;;;;;;;28.00;4.65;;;;;;;38.41;20.25;99055.75;10125644;28;20036;-82
2022/08/15 12:16:33;;;;;;;29.92;5.20;;;;;;;38.77;21.13;99126.13;10122642;29;20041;-80
2022/08/15 12:21:46;;;;;;;26.23;4.80;;;;;;;38.65;20.61;99138.34;10117238;29;20032;-81
2022/08/15 12:26:47;;;;;;;17.40;4.82;;;;;;;38.41;20.90;99103.69;10121858;29;20575;-75
2022/08/15 12:31:50;;;;;;;43.00;5.53;;;;;;;38.53;21.20;99114.50;10124989;28;20091;-77
2022/08/15 12:36:51;;;;;;;25.35;5.47;;;;;;;38.47;20.97;99107.75;10124582;28;20509;-79
2022/08/15 12:41:54;;;;;;;35.10;5.15;;;;;;;38.53;21.03;99122.84;10126519;29;20072;-75
2022/08/15 12:46:56;;;;;;;28.10;5.05;;;;;;;38.41;21.07;99125.91;10122397;28;20494;-80
2022/08/15 12:51:57;;;;;;;19.92;5.00;;;;;;;37.79;22.09;99031.50;10122185;29;20041;-77
2022/08/15 12:56:58;;;;;;;66.60;7.70;;;;;;;38.14;21.80;99097.53;10123255;29;20427;-80
2022/08/15 13:02:00;;;;;;;29.30;4.97;;;;;;;38.23;22.31;99116.63;10122914;29;20078;-79
2022/08/15 13:07:00;;;;;;;;;;;;;;;38.30;22.26;99130.56;10142727;29;20052;-79
2022/08/15 13:12:01;;;;;;;29.23;5.37;;;;;;;38.06;22.03;99116.09;10153523;28;19919;-76
2022/08/15 13:17:03;;;;;;;19.93;5.17;;;;;;;37.79;21.74;99107.13;10137458;29;20102;-74
2022/08/15 13:27:24;;;;;;;22.70;5.18;;;;;;;37.31;22.12;99078.47;10165750;29;20048;-80
2022/08/15 13:32:24;;;;;;;20.48;5.47;;;;;;;37.52;22.53;99109.22;10136879;29;20044;-76
2022/08/15 13:37:26;;;;;;;24.07;4.97;;;;;;;37.49;22.32;99112.75;10126741;29;20060;-75
2022/08/15 13:42:27;;;;;;;30.42;5.70;;;;;;;37.40;21.84;99099.16;10126109;29;20051;-74
2022/08/15 13:47:29;;;;;;;37.90;6.32;;;;;;;37.42;22.27;99130.03;10129450;29;20040;-73
2022/08/15 13:52:30;;;;;;;31.55;6.50;;;;;;;36.72;22.60;99047.66;10133486;29;20072;-76
2022/08/15 13:57:30;;;;;;;21.92;5.38;;;;;;;37.21;22.81;99135.31;10132446;29;20054;-76
2022/08/15 14:02:31;;;;;;;38.25;6.03;;;;;;;36.93;22.54;99111.59;10148398;29;20522;-77
2022/08/15 14:07:32;;;;;;;35.28;6.50;;;;;;;36.79;21.91;99108.63;10137429;29;20071;-75
2022/08/15 14:12:33;;;;;;;27.95;6.53;;;;;;;36.73;21.79;99110.91;10131960;29;20049;-77
2022/08/15 14:17:34;;;;;;;32.08;6.50;;;;;;;36.85;21.90;99140.34;10132090;29;20055;-80
2022/08/15 14:22:36;;;;;;;45.38;6.85;;;;;;;36.63;21.73;99147.53;10132334;29;20100;-79
2022/08/15 14:27:36;;;;;;;36.37;5.90;;;;;;;36.64;21.88;99151.91;10131619;29;20044;-76
2022/08/15 14:32:38;;;;;;;28.00;5.78;;;;;;;36.52;22.19;99154.88;10131693;29;20436;-75
2022/08/15 14:37:42;;;;;;;21.43;5.90;;;;;;;36.39;22.42;99162.53;10132465;29;20119;-75
2022/08/15 14:42:43;;;;;;;27.35;6.63;;;;;;;36.28;22.69;99148.53;10130984;29;20111;-80
2022/08/15 14:47:45;;;;;;;57.58;6.68;;;;;;;35.66;23.31;99073.22;10131075;29;20110;-74
2022/08/15 14:52:46;;;;;;;18.05;5.05;;;;;;;35.60;23.50;99083.78;10131419;29;20485;-77
2022/08/15 14:57:48;;;;;;;29.30;5.68;;;;;;;35.65;23.92;99113.03;10130404;29;20052;-78
2022/08/15 15:02:52;;;;;;;34.28;5.95;;;;;;;35.25;24.23;99078.34;10145436;28;20127;-77
2022/08/15 15:07:56;;;;;;;23.67;6.50;;;;;;;35.43;24.50;99142.19;10133303;29;20044;-75
2022/08/15 15:13:02;;;;;;;33.80;5.60;;;;;;;35.31;25.15;99162.47;10130784;29;20033;-76
2022/08/15 15:18:04;;;;;;;29.70;6.28;;;;;;;35.19;25.30;99168.13;10130562;29;20052;-78
2022/08/15 15:23:05;;;;;;;19.87;5.67;;;;;;;34.98;25.79;99160.94;10130626;29;20037;-75
2022/08/15 15:28:08;;;;;;;21.75;5.40;;;;;;;34.99;26.79;99203.91;10130012;29;20386;-72
2022/08/15 15:33:08;;;;;;;33.88;7.57;;;;;;;34.45;29.16;99167.94;10129748;29;20043;-75
2022/08/15 15:38:09;;;;;;;25.40;6.22;;;;;;;34.39;29.93;99197.72;10130301;29;20151;-76
2022/08/15 15:43:10;;;;;;;35.10;7.88;;;;;;;34.24;30.48;99213.09;10130119;29;20045;-73
2022/08/15 15:48:13;;;;;;;30.48;6.93;;;;;;;34.15;30.88;99241.97;10130563;28;20052;-74
2022/08/15 15:53:24;;;;;;;56.92;10.25;;;;;;;33.81;32.23;99222.94;10143539;29;20103;-75
2022/08/15 15:58:26;;;;;;;100.07;16.10;;;;;;;33.47;33.79;99224.28;10128760;29;20052;-75
2022/08/15 16:03:27;;;;;;;90.75;15.10;;;;;;;33.35;34.96;99260.09;10129464;29;20048;-77
2022/08/15 16:08:31;;;;;;;81.30;13.98;;;;;;;32.62;36.16;99183.91;10128418;29;20552;-77
2022/08/15 16:13:44;;;;;;;81.07;14.32;;;;;;;32.78;37.09;99256.31;10150862;29;20175;-78
2022/08/15 16:19:27;;;;;;;93.57;16.50;;;;;;;32.74;37.81;99277.41;10150836;29;20048;-76
2022/08/15 16:24:40;;;;;;;82.80;14.80;;;;;;;32.23;38.25;99233.63;10164097;28;20098;-71
2022/08/15 16:29:59;;;;;;;78.32;14.55;;;;;;;32.13;38.46;99258.81;10110592;28;20152;-71
2022/08/15 16:35:10;;;;;;;87.65;15.95;;;;;;;32.16;39.39;99287.53;10121507;29;20128;-74
2022/08/15 16:40:28;;;;;;;77.13;14.83;;;;;;;31.52;39.61;99214.56;10138694;28;20159;-75
2022/08/15 16:46:12;;;;;;;93.38;14.30;;;;;;;31.87;39.86;99299.41;10157065;29;20064;-71
2022/08/15 16:51:18;;;;;;;68.20;13.52;;;;;;;31.64;40.25;99309.91;10167679;29;20459;-77
2022/08/15 16:56:34;;;;;;;53.53;12.85;;;;;;;31.54;40.34;99313.84;10127743;29;20144;-73
2022/08/15 17:01:40;;;;;;;60.33;11.55;;;;;;;31.39;41.29;99326.22;10127861;29;20493;-73
2022/08/15 17:06:59;;;;;;;52.00;12.18;;;;;;;31.27;41.65;99339.81;10088533;29;20060;-76
2022/08/15 17:12:52;;;;;;;64.43;12.40;;;;;;;31.14;42.10;99338.88;10103477;29;20065;-73
2022/08/15 17:18:06;;;;;;;69.50;13.20;;;;;;;30.89;42.82;99340.59;10085290;29;20049;-73
2022/08/15 17:23:23;;;;;;;87.95;13.50;;;;;;;30.77;43.10;99349.47;10121521;28;20084;-73
2022/08/15 17:28:34;;;;;;;71.75;14.05;;;;;;;30.61;43.76;99346.44;10147616;29;20045;-74
2022/08/15 17:33:47;;;;;;;66.83;13.30;;;;;;;30.32;43.93;99322.47;10160678;29;20044;-72
2022/08/15 17:39:08;;;;;;;60.28;13.18;;;;;;;30.19;43.98;99328.91;10145719;29;20076;-75
2022/08/15 17:44:17;;;;;;;63.97;13.15;;;;;;;30.22;43.87;99352.97;10151037;29;20051;-74
2022/08/15 17:49:26;;;;;;;56.15;12.68;;;;;;;30.08;43.90;99350.34;10164789;29;20051;-73
2022/08/15 17:54:50;;;;;;;59.83;12.13;;;;;;;29.55;43.88;99272.81;10144653;29;20055;-69
2022/08/15 18:00:06;;;;;;;58.88;11.50;;;;;;;29.72;43.94;99323.25;10152294;29;20052;-74
2022/08/15 18:05:15;;;;;;;34.85;9.98;;;;;;;29.76;44.54;99357.06;10144838;29;20064;-72
2022/08/15 18:10:36;;;;;;;27.35;9.57;;;;;;;29.60;44.88;99361.38;10137638;29;20416;-74
2022/08/15 18:16:00;;;;;;;38.73;10.37;;;;;;;29.49;45.84;99367.13;10139157;29;20097;-78
2022/08/15 18:21:19;;;;;;;41.88;10.80;;;;;;;29.29;46.46;99349.38;10128902;29;20480;-74
2022/08/15 18:26:50;;;;;;;31.63;9.27;;;;;;;29.18;46.46;99358.19;10131348;29;20044;-79
2022/08/15 18:31:57;;;;;;;41.13;10.20;;;;;;;29.08;46.26;99362.81;10140970;28;20183;-79
2022/08/15 18:36:59;;;;;;;34.30;9.82;;;;;;;28.84;46.76;99340.47;10131662;29;20056;-73
2022/08/15 18:42:05;;;;;;;31.00;10.30;;;;;;;28.90;47.23;99364.63;10131654;29;20531;-78
2022/08/15 18:47:21;;;;;;;27.27;11.48;;;;;;;28.77;47.18;99351.03;10130992;28;20044;-71
2022/08/15 18:52:29;;;;;;;39.53;14.95;;;;;;;28.76;47.14;99382.22;10132487;29;20496;-69
2022/08/15 18:57:45;;;;;;;39.05;15.30;;;;;;;28.61;47.02;99370.53;10130633;29;20048;-72
2022/08/15 19:02:46;;;;;;;35.30;13.80;;;;;;;28.57;47.21;99371.47;10130715;29;20041;-71
2022/08/15 19:07:49;;;;;;;36.30;14.13;;;;;;;28.34;47.49;99365.19;10133189;29;20087;-75
2022/08/15 19:12:56;;;;;;;35.63;13.35;;;;;;;28.35;47.99;99383.19;10130444;29;20045;-72
2022/08/15 19:18:08;;;;;;;37.92;13.40;;;;;;;28.27;49.14;99384.75;10131810;29;20099;-71
2022/08/15 19:23:10;;;;;;;39.10;13.23;;;;;;;27.90;48.72;99334.78;10169076;29;20451;-74
2022/08/15 19:28:40;;;;;;;27.60;12.02;;;;;;;28.20;49.28;99395.25;10169294;29;20051;-72
2022/08/15 19:33:50;;;;;;;30.00;11.65;;;;;;;28.01;49.79;99386.44;10168127;29;20080;-73
2022/08/15 19:39:08;;;;;;;29.50;11.93;;;;;;;27.74;50.50;99355.31;10169573;29;20570;-72
2022/08/15 19:44:33;;;;;;;27.23;11.85;;;;;;;27.40;50.71;99312.94;10166767;29;20161;-75
2022/08/15 19:55:44;;;;;;;29.95;11.38;;;;;;;27.75;51.82;99392.41;10156579;29;20051;-79
2022/08/15 20:00:50;;;;;;;26.88;10.85;;;;;;;27.31;51.72;99351.03;10137434;29;20394;-78
2022/08/15 20:06:27;;;;;;;33.08;10.75;;;;;;;27.47;52.95;99386.16;10128722;29;20047;-78
2022/08/15 20:11:37;;;;;;;23.08;10.55;;;;;;;27.02;53.21;99323.22;10128306;29;20036;-73
2022/08/15 20:16:42;;;;;;;21.98;10.27;;;;;;;27.43;53.35;99401.50;10128710;29;20049;-76
2022/08/15 20:22:16;;;;;;;20.33;9.85;;;;;;;27.43;54.50;99405.06;10128879;29;20047;-74
2022/08/15 20:27:25;;;;;;;23.92;9.10;;;;;;;27.36;54.20;99414.75;10127767;29;20089;-79
2022/08/15 20:32:37;;;;;;;20.27;9.50;;;;;;;26.86;54.81;99345.31;10128915;28;20095;-77
2022/08/15 20:37:42;;;;;;;23.90;9.83;;;;;;;27.31;54.88;99429.25;10142985;29;20658;-78
2022/08/15 20:42:56;;;;;;;22.73;9.48;;;;;;;26.67;55.51;99341.00;10128541;29;20111;-74
2022/08/15 20:48:05;;;;;;;18.70;9.35;;;;;;;27.12;55.84;99402.06;10128128;29;20121;-75
2022/08/15 20:53:08;;;;;;;25.02;8.57;;;;;;;27.09;55.57;99414.38;10128142;29;20056;-76
2022/08/15 20:58:18;;;;;;;21.80;9.35;;;;;;;27.18;56.82;99424.63;10133334;29;20075;-77
2022/08/15 21:03:22;;;;;;;14.48;8.88;;;;;;;26.62;56.67;99345.44;10145218;29;20554;-75
2022/08/15 21:08:37;;;;;;;21.17;8.98;;;;;;;27.01;57.16;99404.19;10136370;29;20041;-75
2022/08/15 21:13:54;;;;;;;24.48;9.73;;;;;;;26.55;57.33;99336.03;10134621;29;20051;-76
2022/08/15 21:18:58;;;;;;;22.08;10.15;;;;;;;27.04;56.20;99410.91;10134294;29;20036;-73
2022/08/15 21:23:59;;;;;;;23.55;10.25;;;;;;;26.51;56.49;99335.84;10134676;29;20047;-76
2022/08/15 21:29:17;;;;;;;25.02;10.50;;;;;;;26.75;57.12;99379.28;10133459;29;20052;-77
2022/08/15 21:35:06;;;;;;;22.88;10.60;;;;;;;26.79;56.77;99385.75;10134063;29;20033;-77
2022/08/15 21:40:38;;;;;;;29.30;10.63;;;;;;;26.58;56.91;99357.22;10145978;29;20060;-78
2022/08/15 21:45:45;;;;;;;;;;;;;;;26.92;56.29;99386.88;10133822;29;20045;-77
2022/08/15 21:50:46;;;;;;;26.60;9.77;;;;;;;26.79;55.80;99383.00;10147897;29;19927;-74
2022/08/15 21:55:48;;;;;;;20.02;8.98;;;;;;;26.16;56.29;99293.63;10132560;29;20116;-76
2022/08/15 22:01:06;;;;;;;25.10;8.85;;;;;;;26.69;56.53;99369.56;10132945;29;20171;-75
2022/08/15 22:06:16;;;;;;;24.98;7.85;;;;;;;26.48;56.65;99341.84;10131944;29;20555;-78
2022/08/15 22:11:21;;;;;;;27.27;7.85;;;;;;;26.08;56.33;99276.03;10147004;29;20408;-77
2022/08/15 22:16:22;;;;;;;29.75;7.32;;;;;;;26.63;55.78;99357.16;10147071;29;20094;-77
2022/08/15 22:21:23;;;;;;;27.52;7.85;;;;;;;26.42;55.72;99343.84;10131798;29;20122;-76
2022/08/15 22:26:27;;;;;;;35.90;7.47;;;;;;;26.60;55.88;99377.63;10132228;29;20040;-75
2022/08/15 22:31:32;;;;;;;26.45;7.40;;;;;;;26.12;55.63;99322.56;10132368;29;20044;-73
2022/08/15 22:36:33;;;;;;;28.00;7.72;;;;;;;26.35;55.47;99350.75;10132342;29;20064;-77
2022/08/15 22:41:34;;;;;;;24.20;7.38;;;;;;;26.34;55.18;99357.31;10131933;29;20135;-78
2022/08/15 22:46:40;;;;;;;23.45;7.40;;;;;;;26.44;55.08;99378.94;10132300;29;20132;-79
2022/08/15 22:51:50;;;;;;;26.48;8.02;;;;;;;25.85;55.11;99296.81;10132156;29;20055;-78
2022/08/15 22:56:57;;;;;;;29.50;7.57;;;;;;;26.39;55.25;99395.38;10131363;29;20049;-74
2022/08/15 23:02:04;;;;;;;29.42;6.80;;;;;;;25.95;55.10;99323.06;10131195;29;20048;-76
2022/08/15 23:07:32;;;;;;;30.88;7.22;;;;;;;26.40;55.00;99407.88;10131934;29;20099;-77
2022/08/15 23:12:37;;;;;;;29.35;7.28;;;;;;;25.81;54.50;99327.59;10131022;29;20570;-77
2022/08/15 23:17:49;;;;;;;37.75;8.35;;;;;;;25.92;54.52;99357.09;10145162;29;20106;-76
2022/08/15 23:22:50;;;;;;;41.60;8.75;;;;;;;26.28;54.16;99421.13;10131739;29;20520;-77
2022/08/15 23:27:53;;;;;;;33.22;8.10;;;;;;;25.93;54.25;99372.31;10130910;29;20098;-76
2022/08/15 23:32:58;;;;;;;33.45;8.52;;;;;;;26.17;54.59;99429.44;10129764;29;20041;-77
2022/08/15 23:38:03;;;;;;;33.63;7.43;;;;;;;26.02;55.29;99432.34;10130456;29;20061;-77
2022/08/15 23:43:05;;;;;;;30.95;8.10;;;;;;;25.82;55.38;99422.56;10129581;29;20076;-77
2022/08/15 23:48:07;;;;;;;40.40;8.40;;;;;;;25.36;55.70;99374.09;10130343;29;20136;-77